createdAt,value
2019-02-19T00:02:13.081Z,96.00
2019-02-19T00:04:41.625Z,95.80
2019-02-19T00:07:10.187Z,95.90
2019-02-19T00:09:38.655Z,96.20
2019-02-19T00:12:07.146Z,96.20
2019-02-19T00:14:35.679Z,96.00
2019-02-19T00:17:04.239Z,96.00
2019-02-19T00:19:32.784Z,95.50
2019-02-19T00:22:01.347Z,95.20
2019-02-19T00:24:29.810Z,95.30
2019-02-19T00:26:58.615Z,95.00
2019-02-19T00:29:27.085Z,95.10
2019-02-19T00:31:55.692Z,95.20
2019-02-19T00:34:24.196Z,95.30
2019-02-19T00:36:52.798Z,95.10
2019-02-19T00:39:21.294Z,95.00
2019-02-19T00:41:49.760Z,94.90
2019-02-19T00:44:18.219Z,94.90
2019-02-19T00:46:46.721Z,95.20
2019-02-19T00:49:15.181Z,95.20
2019-02-19T00:51:43.643Z,95.20
2019-02-19T00:54:12.126Z,95.20
2019-02-19T00:56:40.609Z,95.30
2019-02-19T00:59:09.075Z,95.40
2019-02-19T01:01:37.534Z,95.50
2019-02-19T01:04:06.086Z,95.60
2019-02-19T01:06:34.665Z,95.60
2019-02-19T01:09:04.846Z,95.70
2019-02-19T01:11:33.380Z,95.50
2019-02-19T01:14:02.634Z,95.50
2019-02-19T01:16:31.118Z,94.90
2019-02-19T01:18:59.675Z,95.30
2019-02-19T01:21:28.134Z,95.20
2019-02-19T01:23:56.622Z,95.20
2019-02-19T01:26:25.083Z,95.10
2019-02-19T01:28:53.642Z,95.30
2019-02-19T01:31:22.128Z,95.50
2019-02-19T01:33:50.610Z,95.60
2019-02-19T01:36:19.103Z,95.70
2019-02-19T01:38:47.644Z,95.80
2019-02-19T01:41:16.203Z,96.00
2019-02-19T01:43:44.738Z,96.10
2019-02-19T01:46:13.222Z,96.00
2019-02-19T01:48:41.848Z,96.00
2019-02-19T01:51:10.331Z,96.00
2019-02-19T01:53:38.834Z,95.60
2019-02-19T01:56:07.443Z,95.30
2019-02-19T01:58:35.898Z,95.40
2019-02-19T02:01:04.386Z,95.40
2019-02-19T02:03:33.139Z,95.30
2019-02-19T02:06:01.600Z,95.40
2019-02-19T02:08:30.094Z,95.20
2019-02-19T02:10:58.703Z,95.70
2019-02-19T02:13:27.187Z,95.50
2019-02-19T02:15:55.715Z,95.90
2019-02-19T02:18:24.176Z,96.00
2019-02-19T02:20:52.659Z,95.90
2019-02-19T02:23:21.154Z,95.80
2019-02-19T02:25:49.619Z,95.70
2019-02-19T02:28:18.088Z,95.70
2019-02-19T02:30:46.594Z,95.70
2019-02-19T02:33:15.063Z,95.70
2019-02-19T02:35:43.618Z,95.70
2019-02-19T02:38:12.110Z,95.80
2019-02-19T02:40:40.594Z,96.00
2019-02-19T02:43:09.082Z,96.20
2019-02-19T02:45:37.612Z,96.50
2019-02-19T02:48:06.095Z,96.80
2019-02-19T02:50:34.582Z,97.10
2019-02-19T02:53:03.039Z,97.00
2019-02-19T02:55:31.525Z,96.90
2019-02-19T02:57:59.987Z,96.80
2019-02-19T03:00:28.451Z,96.90
2019-02-19T03:02:56.939Z,96.80
2019-02-19T03:05:25.506Z,96.90
2019-02-19T03:07:58.366Z,97.00
2019-02-19T03:10:26.905Z,97.10
2019-02-19T03:12:55.557Z,97.00
2019-02-19T03:15:24.150Z,97.10
2019-02-19T03:17:52.713Z,97.20
2019-02-19T03:20:21.242Z,97.20
2019-02-19T03:22:49.809Z,97.20
2019-02-19T03:25:18.298Z,97.10
2019-02-19T03:27:46.759Z,97.10
2019-02-19T03:30:15.343Z,97.00
2019-02-19T03:32:43.875Z,97.10
2019-02-19T03:35:12.406Z,97.10
2019-02-19T03:37:40.898Z,97.10
2019-02-19T03:40:09.602Z,97.10
2019-02-19T03:42:38.093Z,97.10
2019-02-19T03:45:09.091Z,97.10
2019-02-19T03:47:37.556Z,97.00
2019-02-19T03:50:06.474Z,96.90
2019-02-19T03:52:35.008Z,96.80
2019-02-19T03:55:03.611Z,96.80
2019-02-19T03:57:32.247Z,96.70
2019-02-19T04:00:00.835Z,96.60
2019-02-19T04:02:29.984Z,96.90
2019-02-19T04:04:58.675Z,96.50
2019-02-19T04:07:27.168Z,96.20
2019-02-19T04:09:55.626Z,96.10
2019-02-19T04:12:24.116Z,96.10
2019-02-19T04:14:52.647Z,96.10
2019-02-19T04:17:21.143Z,96.00
2019-02-19T04:19:49.689Z,96.10
2019-02-19T04:22:18.259Z,96.20
2019-02-19T04:24:46.732Z,96.20
2019-02-19T04:27:15.285Z,96.20
2019-02-19T04:29:43.843Z,96.10
2019-02-19T04:32:12.404Z,96.10
2019-02-19T04:34:40.899Z,96.20
2019-02-19T04:37:09.430Z,96.20
2019-02-19T04:39:37.889Z,96.20
2019-02-19T04:42:06.507Z,96.30
2019-02-19T04:44:34.998Z,96.20
2019-02-19T04:47:03.454Z,96.10
2019-02-19T04:49:31.939Z,95.80
2019-02-19T04:52:00.403Z,95.40
2019-02-19T04:54:28.967Z,95.20
2019-02-19T04:56:57.502Z,95.10
2019-02-19T04:59:25.966Z,94.90
2019-02-19T05:01:54.469Z,94.60
2019-02-19T05:04:23.410Z,94.40
2019-02-19T05:06:51.879Z,94.30
2019-02-19T05:09:20.366Z,94.20
2019-02-19T05:11:48.938Z,94.00
2019-02-19T05:14:17.394Z,93.90
2019-02-19T05:16:45.873Z,94.20
2019-02-19T05:19:14.434Z,93.80
2019-02-19T05:21:42.898Z,93.60
2019-02-19T05:24:11.391Z,93.40
2019-02-19T05:26:39.890Z,93.20
2019-02-19T05:29:08.373Z,93.10
2019-02-19T05:31:36.954Z,92.90
2019-02-19T05:34:05.499Z,92.80
2019-02-19T05:36:34.043Z,92.60
2019-02-19T05:39:02.707Z,92.60
2019-02-19T05:41:31.236Z,92.60
2019-02-19T05:43:59.772Z,92.60
2019-02-19T05:46:28.421Z,92.70
2019-02-19T05:48:57.305Z,92.80
2019-02-19T05:51:25.760Z,92.80
2019-02-19T05:53:54.257Z,92.90
2019-02-19T05:56:22.792Z,92.90
2019-02-19T05:58:51.352Z,93.00
2019-02-19T06:01:19.910Z,92.80
2019-02-19T06:03:48.459Z,93.00
2019-02-19T06:06:16.918Z,93.00
2019-02-19T06:08:45.442Z,93.00
2019-02-19T06:11:14.091Z,93.00
2019-02-19T06:13:42.583Z,93.10
2019-02-19T06:16:11.050Z,93.20
2019-02-19T06:18:39.622Z,93.10
2019-02-19T06:21:08.091Z,93.00
2019-02-19T06:23:44.413Z,92.90
2019-02-19T06:26:12.948Z,92.90
2019-02-19T06:28:41.478Z,92.80
2019-02-19T06:31:10.149Z,92.70
2019-02-19T06:33:38.682Z,92.70
2019-02-19T06:36:07.282Z,92.50
2019-02-19T06:38:35.774Z,92.80
2019-02-19T06:41:04.463Z,92.70
2019-02-19T06:43:32.956Z,92.30
2019-02-19T06:46:01.511Z,92.30
2019-02-19T06:48:29.978Z,92.20
2019-02-19T06:50:58.485Z,92.00
2019-02-19T06:53:27.034Z,92.00
2019-02-19T06:55:55.499Z,91.90
2019-02-19T06:58:24.058Z,91.70
2019-02-19T07:00:52.519Z,91.60
2019-02-19T07:03:31.575Z,91.40
2019-02-19T07:06:00.109Z,91.60
2019-02-19T07:08:28.678Z,91.40
2019-02-19T07:10:57.167Z,91.10
2019-02-19T07:13:25.723Z,91.20
2019-02-19T07:15:54.203Z,91.30
2019-02-19T07:18:22.672Z,91.20
2019-02-19T07:20:51.248Z,91.10
2019-02-19T07:23:19.782Z,91.20
2019-02-19T07:25:48.271Z,91.20
2019-02-19T07:28:16.824Z,91.00
2019-02-19T07:30:45.369Z,90.80
2019-02-19T07:33:13.908Z,90.70
2019-02-19T07:35:42.409Z,90.70
2019-02-19T07:38:10.946Z,90.70
2019-02-19T07:40:39.435Z,90.50
2019-02-19T07:43:07.902Z,90.30
2019-02-19T07:45:36.363Z,90.50
2019-02-19T07:48:04.926Z,90.50
2019-02-19T07:50:33.546Z,90.60
2019-02-19T07:53:02.188Z,90.70
2019-02-19T07:55:30.721Z,90.70
2019-02-19T07:57:59.286Z,90.70
2019-02-19T08:00:27.764Z,90.80
2019-02-19T08:02:56.255Z,90.90
2019-02-19T08:05:24.788Z,91.10
2019-02-19T08:07:53.279Z,91.40
2019-02-19T08:10:21.846Z,91.50
2019-02-19T08:12:50.410Z,91.60
2019-02-19T08:15:18.965Z,92.00
2019-02-19T08:17:47.531Z,92.00
2019-02-19T08:20:16.438Z,91.90
2019-02-19T08:22:44.989Z,91.80
2019-02-19T08:25:13.611Z,92.00
2019-02-19T08:27:42.098Z,92.20
2019-02-19T08:30:11.257Z,92.10
2019-02-19T08:32:39.963Z,92.20
2019-02-19T08:35:08.607Z,92.10
2019-02-19T08:37:37.081Z,91.90
2019-02-19T08:40:08.861Z,91.90
2019-02-19T08:42:37.371Z,91.60
2019-02-19T08:45:07.975Z,92.20
2019-02-19T08:47:42.315Z,92.00
2019-02-19T08:50:08.280Z,92.00
2019-02-19T08:52:36.840Z,91.90
2019-02-19T08:55:06.326Z,91.80
2019-02-19T08:57:34.928Z,91.60
2019-02-19T09:00:05.115Z,91.30
2019-02-19T09:02:33.643Z,91.30
2019-02-19T09:05:02.135Z,91.30
2019-02-19T09:07:30.629Z,90.90
2019-02-19T09:09:59.164Z,90.60
2019-02-19T09:12:27.655Z,90.00
2019-02-19T09:14:56.118Z,90.30
2019-02-19T09:17:24.583Z,90.00
2019-02-19T09:19:53.075Z,90.50
2019-02-19T09:22:21.635Z,90.50
2019-02-19T09:24:50.127Z,90.50
2019-02-19T09:27:18.664Z,90.10
2019-02-19T09:29:47.614Z,89.50
2019-02-19T09:32:16.198Z,89.20
2019-02-19T09:34:46.635Z,90.10
2019-02-19T09:37:14.887Z,89.70
2019-02-19T09:39:43.475Z,90.10
2019-02-19T09:42:11.942Z,90.40
2019-02-19T09:44:40.446Z,90.60
2019-02-19T09:47:08.919Z,90.70
2019-02-19T09:49:37.466Z,90.70
2019-02-19T09:52:05.956Z,91.00
2019-02-19T09:54:34.586Z,90.90
2019-02-19T09:57:03.103Z,91.20
2019-02-19T09:59:31.571Z,91.60
2019-02-19T10:02:00.106Z,92.10
2019-02-19T10:04:29.212Z,92.00
2019-02-19T10:06:57.799Z,91.70
2019-02-19T10:09:26.434Z,90.20
2019-02-19T10:11:54.910Z,88.90
2019-02-19T10:14:23.449Z,87.40
2019-02-19T10:16:52.086Z,87.30
2019-02-19T10:19:20.579Z,85.30
2019-02-19T10:21:49.190Z,84.30
2019-02-19T10:24:17.682Z,83.60
2019-02-19T10:26:46.222Z,79.30
2019-02-19T10:29:14.738Z,76.70
2019-02-19T10:31:43.267Z,77.60
2019-02-19T10:34:11.806Z,77.90
2019-02-19T10:36:40.311Z,75.90
2019-02-19T10:39:10.835Z,73.30
2019-02-19T10:41:39.405Z,73.20
2019-02-19T10:44:08.126Z,75.10
2019-02-19T10:46:36.751Z,74.20
2019-02-19T10:49:05.359Z,75.60
2019-02-19T10:51:53.205Z,73.60
2019-02-19T10:54:21.734Z,73.80
2019-02-19T10:56:50.235Z,73.70
2019-02-19T10:59:18.719Z,72.90
2019-02-19T11:01:47.438Z,71.70
2019-02-19T11:04:16.079Z,71.20
2019-02-19T11:06:44.581Z,71.90
2019-02-19T11:09:13.123Z,72.30
2019-02-19T11:11:41.690Z,73.50
2019-02-19T11:14:10.162Z,73.30
2019-02-19T11:16:39.569Z,72.30
2019-02-19T11:19:08.135Z,71.70
2019-02-19T11:21:36.606Z,70.50
2019-02-19T11:24:05.263Z,69.10
2019-02-19T11:26:33.736Z,68.90
2019-02-19T11:29:02.299Z,67.90
2019-02-19T11:31:30.766Z,67.20
2019-02-19T11:33:59.250Z,66.30
2019-02-19T11:36:27.806Z,65.40
2019-02-19T11:38:56.367Z,65.60
2019-02-19T11:41:24.912Z,65.80
2019-02-19T11:43:53.542Z,64.10
2019-02-19T11:46:22.071Z,63.20
2019-02-19T11:48:50.586Z,63.40
2019-02-19T11:51:19.059Z,62.70
2019-02-19T11:53:47.597Z,61.70
2019-02-19T11:56:16.164Z,59.50
2019-02-19T11:58:44.640Z,59.70
2019-02-19T12:01:13.181Z,59.20
2019-02-19T12:03:41.680Z,59.60
2019-02-19T12:06:10.171Z,59.50
2019-02-19T12:08:39.276Z,58.80
2019-02-19T12:11:08.154Z,58.70
2019-02-19T12:13:36.706Z,59.20
2019-02-19T12:16:05.243Z,59.40
2019-02-19T12:18:33.802Z,60.00
2019-02-19T12:21:02.280Z,61.20
2019-02-19T12:23:30.843Z,62.90
2019-02-19T12:25:59.408Z,63.00
2019-02-19T12:28:27.875Z,63.10
2019-02-19T12:30:56.424Z,62.20
2019-02-19T12:33:24.935Z,62.80
2019-02-19T12:35:53.410Z,62.50
2019-02-19T12:38:21.971Z,62.00
2019-02-19T12:40:50.442Z,62.90
2019-02-19T12:43:18.928Z,62.50
2019-02-19T12:45:47.391Z,62.50
2019-02-19T12:48:15.883Z,64.00
2019-02-19T12:50:44.422Z,65.50
2019-02-19T12:53:12.922Z,65.80
2019-02-19T12:55:41.396Z,66.50
2019-02-19T12:58:10.183Z,66.70
2019-02-19T13:00:38.671Z,65.70
2019-02-19T13:03:07.135Z,65.30
2019-02-19T13:05:35.623Z,63.50
2019-02-19T13:08:04.225Z,63.40
2019-02-19T13:10:32.722Z,64.30
2019-02-19T13:13:01.259Z,64.40
2019-02-19T13:15:29.906Z,63.20
2019-02-19T13:17:58.367Z,63.00
2019-02-19T13:20:26.901Z,62.60
2019-02-19T13:22:55.461Z,62.10
2019-02-19T13:25:24.026Z,62.20
2019-02-19T13:27:52.491Z,60.40
2019-02-19T13:30:22.096Z,59.70
2019-02-19T13:32:50.654Z,59.80
2019-02-19T13:35:19.232Z,58.80
2019-02-19T13:37:47.939Z,58.10
2019-02-19T13:40:20.384Z,58.20
2019-02-19T13:42:48.946Z,58.40
2019-02-19T13:45:17.734Z,58.20
2019-02-19T13:47:46.296Z,58.00
2019-02-19T13:50:26.554Z,56.70
2019-02-19T13:52:56.679Z,56.80
2019-02-19T13:55:26.884Z,56.40
2019-02-19T13:57:57.305Z,57.20
2019-02-19T14:00:27.399Z,56.10
2019-02-19T14:02:55.862Z,55.50
2019-02-19T14:05:24.353Z,55.80
2019-02-19T14:07:52.958Z,56.30
2019-02-19T14:10:21.510Z,55.90
2019-02-19T14:12:49.998Z,56.10
2019-02-19T14:15:29.351Z,56.60
2019-02-19T14:17:57.999Z,56.40
2019-02-19T14:20:33.906Z,56.90
2019-02-19T14:23:04.013Z,57.60
2019-02-19T14:25:50.652Z,58.20
2019-02-19T14:28:37.166Z,58.40
2019-02-19T14:31:16.237Z,56.20
2019-02-19T14:33:49.399Z,55.00
2019-02-19T14:36:22.375Z,54.50
2019-02-19T14:38:58.640Z,54.40
2019-02-19T14:41:28.838Z,54.40
2019-02-19T14:43:59.067Z,53.80
2019-02-19T14:46:41.395Z,54.60
2019-02-19T14:49:31.448Z,54.30
2019-02-19T14:51:55.466Z,53.50
2019-02-19T14:54:40.763Z,53.30
2019-02-19T14:57:10.871Z,52.90
2019-02-19T14:59:44.535Z,52.30
2019-02-19T15:02:17.327Z,51.90
2019-02-19T15:04:48.356Z,51.60
2019-02-19T15:07:20.974Z,51.90
2019-02-19T15:10:09.575Z,52.30
2019-02-19T15:12:56.254Z,52.50
2019-02-19T15:15:42.734Z,52.90
2019-02-19T15:18:12.907Z,53.30
2019-02-19T15:21:01.336Z,53.30
2019-02-19T15:23:31.465Z,53.70
2019-02-19T15:26:10.727Z,54.00
2019-02-19T15:28:43.900Z,54.50
2019-02-19T15:31:25.863Z,54.20
2019-02-19T15:34:12.154Z,53.50
2019-02-19T15:36:58.510Z,53.60
2019-02-19T15:39:31.603Z,54.40
2019-02-19T15:42:01.730Z,54.80
2019-02-19T15:44:41.483Z,55.00
2019-02-19T15:47:27.931Z,55.40
2019-02-19T15:50:04.183Z,56.00
2019-02-19T15:52:43.011Z,56.60
2019-02-19T15:55:15.863Z,56.80
2019-02-19T15:57:48.942Z,57.50
2019-02-19T16:00:34.371Z,57.80
2019-02-19T16:03:04.499Z,58.20
2019-02-19T16:05:50.872Z,58.50
2019-02-19T16:08:37.087Z,58.80
2019-02-19T16:11:07.593Z,59.00
2019-02-19T16:13:52.888Z,59.40
2019-02-19T16:16:23.021Z,59.90
2019-02-19T16:18:59.061Z,60.50
2019-02-19T16:21:45.727Z,60.70
2019-02-19T16:24:18.639Z,61.50
2019-02-19T16:27:05.212Z,62.10
2019-02-19T16:29:38.362Z,61.70
2019-02-19T16:32:26.012Z,61.80
2019-02-19T16:34:59.153Z,62.30
2019-02-19T16:37:32.370Z,63.10
2019-02-19T16:40:18.531Z,63.90
2019-02-19T16:42:54.967Z,64.60
2019-02-19T16:45:28.241Z,65.70
2019-02-19T16:48:01.351Z,65.40
2019-02-19T16:50:31.451Z,66.10
2019-02-19T16:53:01.587Z,66.60
2019-02-19T16:55:37.645Z,67.50
2019-02-19T16:58:07.862Z,68.50
2019-02-19T17:00:53.887Z,69.30
2019-02-19T17:03:32.727Z,69.90
2019-02-19T17:06:05.483Z,70.70
2019-02-19T17:08:41.483Z,70.70
2019-02-19T17:11:17.991Z,71.30
2019-02-19T17:14:06.369Z,71.50
2019-02-19T17:16:52.880Z,72.10
2019-02-19T17:19:26.151Z,72.30
2019-02-19T17:21:56.318Z,72.70
2019-02-19T17:24:26.439Z,72.90
2019-02-19T17:26:59.518Z,73.50
2019-02-19T17:29:29.747Z,74.10
2019-02-19T17:31:59.851Z,74.80
2019-02-19T17:34:42.156Z,75.20
2019-02-19T17:37:12.255Z,75.40
2019-02-19T17:39:58.982Z,75.90
2019-02-19T17:42:32.065Z,76.40
2019-02-19T17:45:17.619Z,76.90
2019-02-19T17:47:47.718Z,76.90
2019-02-19T17:50:20.330Z,76.70
2019-02-19T17:52:53.451Z,76.40
2019-02-19T17:55:39.531Z,76.60
2019-02-19T17:58:21.864Z,76.50
2019-02-19T18:00:52.035Z,77.40
2019-02-19T18:03:38.441Z,76.80
2019-02-19T18:06:25.317Z,76.70
2019-02-19T18:08:58.488Z,76.50
2019-02-19T18:11:43.621Z,76.60
2019-02-19T18:14:22.875Z,76.70
2019-02-19T18:17:04.627Z,77.00
2019-02-19T18:19:33.117Z,77.50
2019-02-19T18:22:01.578Z,77.80
2019-02-19T18:24:30.119Z,78.40
2019-02-19T18:26:58.599Z,78.80
2019-02-19T18:29:27.092Z,79.10
2019-02-19T18:31:55.559Z,79.40
2019-02-19T18:34:24.043Z,79.70
2019-02-19T18:36:52.506Z,80.50
2019-02-19T18:39:21.062Z,80.90
2019-02-19T18:41:49.523Z,81.40
2019-02-19T18:44:18.954Z,82.00
2019-02-19T18:46:47.512Z,82.30
2019-02-19T18:49:16.023Z,82.70
2019-02-19T18:51:44.506Z,83.30
2019-02-19T18:54:13.039Z,83.60
2019-02-19T18:56:41.591Z,83.80
2019-02-19T18:59:10.051Z,83.90
2019-02-19T19:01:38.539Z,84.30
2019-02-19T19:04:07.070Z,84.80
2019-02-19T19:06:35.575Z,85.00
2019-02-19T19:09:05.516Z,85.00
2019-02-19T19:11:33.978Z,85.00
2019-02-19T19:14:02.463Z,85.40
2019-02-19T19:16:30.922Z,85.70
2019-02-19T19:18:59.447Z,85.70
2019-02-19T19:21:27.914Z,85.70
2019-02-19T19:23:56.474Z,85.40
2019-02-19T19:26:24.935Z,86.00
2019-02-19T19:28:53.419Z,86.20
2019-02-19T19:31:21.975Z,86.70
2019-02-19T19:33:50.479Z,87.10
2019-02-19T19:36:19.019Z,87.70
2019-02-19T19:38:47.559Z,87.80
2019-02-19T19:41:16.057Z,88.20
2019-02-19T19:43:44.617Z,88.70
2019-02-19T19:46:13.075Z,89.20
2019-02-19T19:48:41.673Z,89.70
2019-02-19T19:51:17.129Z,89.80
2019-02-19T19:53:40.393Z,90.10
2019-02-19T19:56:08.875Z,90.30
2019-02-19T19:58:37.415Z,90.50
2019-02-19T20:01:05.994Z,90.60
2019-02-19T20:03:34.523Z,90.60
2019-02-19T20:06:03.092Z,90.60
2019-02-19T20:08:31.735Z,90.60
2019-02-19T20:11:00.234Z,90.60
2019-02-19T20:13:28.763Z,90.70
2019-02-19T20:15:57.395Z,90.80
2019-02-19T20:18:25.897Z,91.00
2019-02-19T20:20:54.455Z,91.20
2019-02-19T20:23:23.319Z,91.30
2019-02-19T20:25:51.803Z,91.50
2019-02-19T20:28:20.308Z,91.50
2019-02-19T20:30:48.843Z,91.40
2019-02-19T20:33:17.303Z,91.40
2019-02-19T20:35:45.795Z,91.40
2019-02-19T20:38:14.286Z,91.40
2019-02-19T20:40:42.823Z,91.50
2019-02-19T20:43:11.419Z,91.60
2019-02-19T20:45:39.956Z,91.80
2019-02-19T20:48:08.501Z,92.20
2019-02-19T20:50:37.073Z,92.40
2019-02-19T20:53:05.697Z,92.70
2019-02-19T20:55:36.950Z,93.00
2019-02-19T20:58:04.607Z,93.20
2019-02-19T21:00:33.088Z,93.60
2019-02-19T21:03:01.546Z,93.30
2019-02-19T21:05:30.012Z,93.20
2019-02-19T21:07:58.573Z,93.10
2019-02-19T21:10:27.211Z,93.10
2019-02-19T21:12:55.775Z,93.20
2019-02-19T21:15:24.243Z,93.40
2019-02-19T21:17:52.712Z,93.50
2019-02-19T21:20:22.143Z,93.80
2019-02-19T21:22:50.931Z,94.10
2019-02-19T21:25:19.470Z,94.00
2019-02-19T21:27:47.959Z,94.10
2019-02-19T21:30:16.931Z,94.00
2019-02-19T21:32:45.499Z,94.00
2019-02-19T21:35:14.167Z,94.00
2019-02-19T21:37:42.633Z,94.10
2019-02-19T21:40:15.642Z,94.10
2019-02-19T21:42:44.243Z,94.40
2019-02-19T21:45:14.911Z,94.30
2019-02-19T21:47:43.439Z,94.40
2019-02-19T21:50:15.428Z,94.50
2019-02-19T21:52:43.590Z,94.40
2019-02-19T21:55:12.858Z,94.40
2019-02-19T21:57:41.566Z,94.50
2019-02-19T22:00:16.983Z,94.50
2019-02-19T22:02:45.583Z,94.30
2019-02-19T22:05:14.074Z,94.30
2019-02-19T22:07:42.607Z,94.10
2019-02-19T22:10:12.811Z,94.10
2019-02-19T22:12:41.366Z,94.20
2019-02-19T22:15:14.238Z,94.40
2019-02-19T22:17:43.671Z,94.40
2019-02-19T22:20:38.509Z,94.60
2019-02-19T22:23:07.686Z,94.70
2019-02-19T22:25:36.215Z,94.70
2019-02-19T22:28:05.937Z,95.10
2019-02-19T22:30:34.664Z,94.60
2019-02-19T22:33:03.222Z,94.50
2019-02-19T22:35:31.755Z,94.50
2019-02-19T22:38:00.347Z,94.50
2019-02-19T22:40:28.854Z,94.70
2019-02-19T22:42:57.339Z,94.80
2019-02-19T22:45:25.896Z,94.90
2019-02-19T22:47:54.397Z,95.00
2019-02-19T22:50:22.859Z,95.10
2019-02-19T22:52:51.395Z,95.20
2019-02-19T22:55:27.552Z,95.40
2019-02-19T22:57:56.010Z,95.70
2019-02-19T23:00:47.591Z,96.00
2019-02-19T23:03:17.994Z,96.10
2019-02-19T23:05:46.531Z,96.30
2019-02-19T23:08:15.043Z,96.20
2019-02-19T23:10:43.512Z,96.50
2019-02-19T23:13:12.098Z,97.00
2019-02-19T23:15:40.632Z,96.80
2019-02-19T23:18:09.117Z,96.80
2019-02-19T23:20:37.654Z,96.80
2019-02-19T23:23:06.148Z,96.80
2019-02-19T23:25:34.632Z,96.80
2019-02-19T23:28:03.500Z,96.80
2019-02-19T23:30:33.688Z,96.80
2019-02-19T23:33:02.166Z,96.80
2019-02-19T23:35:32.290Z,96.80
2019-02-19T23:38:00.755Z,96.80
2019-02-19T23:40:29.314Z,97.00
2019-02-19T23:42:57.770Z,97.10
2019-02-19T23:45:26.263Z,97.00
2019-02-19T23:47:54.723Z,97.10
2019-02-19T23:50:23.219Z,97.00
2019-02-19T23:52:51.684Z,97.10
2019-02-19T23:55:20.235Z,97.10
2019-02-19T23:57:48.698Z,97.20
